Claremore, OK (74017)

4:55 PM CDT on August 31, 2015 (GMT -0500)
Rural Near Claremore Lake | | Change Station
CLOSE
Current Station
Personal Weather Station
Location: Claremore, OK
Elevation: 650 ft
Nearby Weather Stations

Elev 650 ft 36.34 °N, 95.58 °W | Updated 1 minute ago

Clear
Clear
91.2 °F
Feels Like 101 °F
N
0.0
Wind Variable Wind from South

Today
High -- | Low -- °F
--% Chance of Precip.
Yesterday
High -- | Low -- °F
Precip. -- in
6:52 AM 7:51 PM
Waning Gibbous, 93% visible
Pressure 29.98 in
Visibility 10.0 miles
Clouds Clear
Heat Index 101 °F
Dew Point 74 °F
Humidity 57%
Rainfall 0.02 in
Snow Depth Not available.
UV 5 out of 12
Pollen 9.80 out of 12
Air Quality Not available.
Flu Activity Not available.
METAR KGCM 312135Z AUTO 16008G16KT 10SM CLR 31/20 A2998 RMK AO2
Pressure 29.98 in
Visibility 10.0 miles
Clouds Clear
Heat Index 101 °F
Dew Point 74 °F
Humidity 57%
Rainfall 0.02 in
Snow Depth Not available.
UV 5 out of 12
Pollen 9.80 out of 12
Air Quality Not available.
Flu Activity Not available.
METAR KGCM 312135Z AUTO 16008G16KT 10SM CLR 31/20 A2998 RMK AO2
Nowcast | as of 4:24 PM CDT on August 31, 2015

At 4:24 PM...National Weather Service Doppler radars detected a few isolated showers and thunderstorms developing over portions of southeast Oklahoma and western Arkansas...mainly within Carroll...Madison...Le Flore...and Latimer counties. All this activity was mainly stationary...with a slight movement toward the north. Through 6:00 PM...isolated showers and thunderstorms will remain possible...mainly across southeast Oklahoma and western Arkansas. Light to moderate rainfall can be expected from most of the activity...with less than a tenth of an inch per hour. Any stronger thunderstorms could produce brief heavy rainfall...along with small hail...gusty winds...and cloud to ground lightning. Any stronger storms that remain over any location for an extended period of time could also cause localized flooding.

×

10-Day Weather Forecast

×

Almanac

Astronomy

Aug. 31, 2015 Rise Set
Actual Time
Civil Twilight
Nautical Twilight
Astronomical Twilight
Moon
Length of Visible Light
Length of Day
Tomorrow will be .
, % of the Moon is Illuminated

Today's Extremes

State Highs State Lows

Community

WunderPhotos

Upload Photos

1,851,377 photos uploaded!

WunderBlogs® & News

Nearby

Air Quality

  Air Quality AQ Index Pollutant
Not available.

Snow Depth

Station Depth Elevation

Earthquake Activity

City Distance Mag. Time & Date
Minimum magnitude displayed is 2.5.

Coastal Water Temperatures

Place Temperature

Stations

Nearby Weather Stations

Station Location Temp. Windchill Dew Point Humidity Wind Precip. Elev Updated Type